Time;durP1;ratioP1;P1;durP2;ratioP2;P2;SDS_P1;SDS_P2;PMS_P1;PMS_P2;Temp;Humidity;BMP_temperature;BMP_pressure;BME280_temperature;BME280_humidity;BME280_pressure;Samples;Min_cycle;Max_cycle;Signal;HPM_P1;HPM_P2
2023/07/01 00:00:12;;;;;;;8.00;2.60;;;;;;;;;;4963470;28;20294;-37
2023/07/01 00:02:37;;;;;;;5.93;2.30;;;;;;;;;;4967766;28;21061;-39
2023/07/01 00:05:04;;;;;;;3.63;1.20;;;;;;;;;;4962800;28;20395;-38
2023/07/01 00:07:29;;;;;;;9.13;2.55;;;;;;;;;;4961956;28;20292;-38
2023/07/01 00:09:54;;;;;;;5.90;2.10;;;;;;;;;;4962569;28;20027;-38
2023/07/01 00:12:19;;;;;;;9.07;2.97;;;;;;;;;;4967494;28;20652;-38
2023/07/01 00:14:45;;;;;;;5.43;2.17;;;;;;;;;;4951141;28;20062;-38
2023/07/01 00:17:12;;;;;;;6.23;3.23;;;;;;;;;;4941945;28;20278;-38
2023/07/01 00:19:37;;;;;;;4.28;2.40;;;;;;;;;;4938544;28;20314;-38
2023/07/01 00:22:02;;;;;;;5.45;2.67;;;;;;;;;;4966200;28;20058;-36
2023/07/01 00:24:28;;;;;;;7.20;2.53;;;;;;;;;;4987774;22;20051;-36
2023/07/01 00:26:53;;;;;;;4.90;2.20;;;;;;;;;;4987641;22;20034;-37
2023/07/01 00:29:18;;;;;;;3.70;2.57;;;;;;;;;;4975840;28;20375;-37
2023/07/01 00:31:43;;;;;;;5.37;2.30;;;;;;;;;;4979972;23;20047;-34
2023/07/01 00:34:09;;;;;;;4.70;2.20;;;;;;;;;;4928485;28;20027;-36
2023/07/01 00:36:34;;;;;;;5.20;3.08;;;;;;;;;;4950393;28;20483;-36
2023/07/01 00:38:59;;;;;;;4.80;2.60;;;;;;;;;;4951047;28;20023;-36
2023/07/01 00:41:25;;;;;;;5.77;3.17;;;;;;;;;;4940894;28;20027;-35
2023/07/01 00:43:50;;;;;;;7.35;1.73;;;;;;;;;;4932346;28;20275;-36
2023/07/01 00:46:16;;;;;;;10.90;2.72;;;;;;;;;;4939625;28;20025;-34
2023/07/01 00:48:42;;;;;;;7.60;2.85;;;;;;;;;;4937606;28;20031;-35
2023/07/01 00:51:07;;;;;;;9.82;3.60;;;;;;;;;;4940672;28;20035;-36
2023/07/01 00:53:32;;;;;;;3.38;2.50;;;;;;;;;;4937908;28;20085;-35
2023/07/01 00:55:58;;;;;;;4.07;2.47;;;;;;;;;;4982971;23;20049;-37
2023/07/01 00:58:23;;;;;;;7.60;3.00;;;;;;;;;;5006274;23;20042;-37
2023/07/01 01:00:48;;;;;;;4.60;2.37;;;;;;;;;;4978513;28;20837;-37
2023/07/01 01:03:32;;;;;;;9.17;2.57;;;;;;;;;;4972031;28;20281;-36
2023/07/01 01:06:03;;;;;;;5.75;2.70;;;;;;;;;;4979344;28;20312;-37
2023/07/01 01:08:37;;;;;;;6.18;3.17;;;;;;;;;;4975398;28;20492;-37
2023/07/01 01:11:04;;;;;;;5.40;2.78;;;;;;;;;;4982697;28;20034;-37
2023/07/01 01:13:30;;;;;;;3.17;2.17;;;;;;;;;;4980406;28;20054;-37
2023/07/01 01:15:57;;;;;;;5.80;2.75;;;;;;;;;;4980189;28;20106;-36
2023/07/01 01:18:24;;;;;;;6.45;3.03;;;;;;;;;;4979009;28;20022;-37
2023/07/01 01:20:50;;;;;;;9.70;2.70;;;;;;;;;;4979760;28;20058;-36
2023/07/01 01:23:23;;;;;;;6.85;3.03;;;;;;;;;;4980581;28;20485;-37
2023/07/01 01:25:57;;;;;;;3.78;2.67;;;;;;;;;;4988370;22;20050;-37
2023/07/01 01:28:22;;;;;;;7.28;3.08;;;;;;;;;;4970501;28;20022;-37
2023/07/01 01:30:47;;;;;;;3.47;2.23;;;;;;;;;;4966259;28;20031;-36
2023/07/01 01:33:13;;;;;;;9.25;3.08;;;;;;;;;;4962445;28;20640;-36
2023/07/01 01:35:38;;;;;;;4.27;1.67;;;;;;;;;;4961458;28;20026;-36
2023/07/01 01:38:17;;;;;;;5.85;2.58;;;;;;;;;;4959215;28;20300;-36
2023/07/01 01:40:45;;;;;;;11.90;3.20;;;;;;;;;;4959947;28;20038;-36
2023/07/01 01:43:16;;;;;;;5.18;3.05;;;;;;;;;;4960764;28;20028;-37
2023/07/01 01:45:42;;;;;;;11.55;3.15;;;;;;;;;;4949741;28;20023;-36
2023/07/01 01:48:08;;;;;;;5.07;2.67;;;;;;;;;;4958981;28;20015;-36
2023/07/01 01:50:36;;;;;;;5.57;2.50;;;;;;;;;;4959508;28;20031;-34
2023/07/01 01:53:02;;;;;;;6.57;2.55;;;;;;;;;;4957105;28;20468;-44
2023/07/01 01:55:29;;;;;;;5.22;2.78;;;;;;;;;;4960757;28;20042;-42
2023/07/01 01:57:54;;;;;;;5.90;2.75;;;;;;;;;;4961809;28;20035;-41
2023/07/01 02:00:20;;;;;;;6.00;2.43;;;;;;;;;;4959529;28;20033;-44
2023/07/01 02:02:45;;;;;;;5.35;2.83;;;;;;;;;;4949898;28;20685;-44
2023/07/01 02:05:10;;;;;;;5.13;2.77;;;;;;;;;;4961603;28;20089;-44
2023/07/01 02:07:36;;;;;;;3.80;2.77;;;;;;;;;;4959972;28;20285;-45
2023/07/01 02:10:02;;;;;;;6.10;2.60;;;;;;;;;;4961419;28;20026;-44
2023/07/01 02:12:27;;;;;;;6.03;2.97;;;;;;;;;;4961973;28;20073;-45
2023/07/01 02:14:52;;;;;;;5.25;2.58;;;;;;;;;;4962430;28;20019;-41
2023/07/01 02:17:17;;;;;;;7.60;3.00;;;;;;;;;;4958321;28;20023;-44
2023/07/01 02:19:43;;;;;;;7.47;2.88;;;;;;;;;;4961440;28;20306;-43
2023/07/01 02:22:08;;;;;;;7.43;2.97;;;;;;;;;;4949974;28;20031;-45
2023/07/01 02:24:33;;;;;;;6.77;2.90;;;;;;;;;;4959282;28;20302;-42
2023/07/01 02:26:59;;;;;;;5.37;2.97;;;;;;;;;;4958166;28;20434;-45
2023/07/01 02:29:24;;;;;;;4.95;2.40;;;;;;;;;;4961321;28;20285;-45
2023/07/01 02:31:50;;;;;;;7.07;3.20;;;;;;;;;;4960038;28;20394;-41
2023/07/01 02:34:15;;;;;;;5.07;2.90;;;;;;;;;;4960465;28;20026;-42
2023/07/01 02:36:43;;;;;;;6.37;3.27;;;;;;;;;;4955058;28;20042;-39
2023/07/01 02:39:08;;;;;;;7.00;4.25;;;;;;;;;;4959673;28;20038;-44
2023/07/01 02:41:33;;;;;;;8.52;4.07;;;;;;;;;;4950723;28;20039;-45
2023/07/01 02:43:58;;;;;;;4.47;2.87;;;;;;;;;;4956220;28;20125;-45
2023/07/01 02:46:24;;;;;;;4.63;3.20;;;;;;;;;;4959804;28;20689;-42
2023/07/01 02:48:49;;;;;;;14.05;5.25;;;;;;;;;;4960409;28;20065;-39
2023/07/01 02:51:15;;;;;;;5.10;2.70;;;;;;;;;;5010458;22;20129;-36
2023/07/01 02:53:40;;;;;;;5.65;3.13;;;;;;;;;;4978981;28;20281;-34
2023/07/01 02:56:05;;;;;;;3.67;2.60;;;;;;;;;;4976232;28;20022;-39
2023/07/01 02:58:30;;;;;;;6.20;2.90;;;;;;;;;;4987356;28;20057;-38
2023/07/01 03:00:56;;;;;;;5.33;2.97;;;;;;;;;;4983249;28;20289;-34
2023/07/01 03:03:21;;;;;;;6.40;3.23;;;;;;;;;;4954576;28;20729;-36
2023/07/01 03:05:46;;;;;;;6.93;3.13;;;;;;;;;;4978946;28;20281;-38
2023/07/01 03:08:12;;;;;;;10.23;3.25;;;;;;;;;;4968661;28;21031;-36
2023/07/01 03:10:37;;;;;;;8.93;3.30;;;;;;;;;;4973723;28;21079;-37
2023/07/01 03:13:02;;;;;;;4.75;3.10;;;;;;;;;;4976184;28;20030;-37
2023/07/01 03:15:28;;;;;;;5.70;3.35;;;;;;;;;;4982349;28;20026;-38
2023/07/01 03:17:53;;;;;;;8.57;3.85;;;;;;;;;;4977329;28;20023;-38
2023/07/01 03:20:24;;;;;;;7.53;4.00;;;;;;;;;;4977213;28;20030;-35
2023/07/01 03:22:51;;;;;;;10.70;3.63;;;;;;;;;;4984018;28;20460;-37
2023/07/01 03:25:16;;;;;;;6.43;3.55;;;;;;;;;;4972833;28;20499;-40
2023/07/01 03:27:41;;;;;;;7.60;3.65;;;;;;;;;;4972559;28;20084;-37
2023/07/01 03:30:13;;;;;;;6.32;3.05;;;;;;;;;;4962243;28;20049;-39
2023/07/01 03:32:39;;;;;;;5.95;3.15;;;;;;;;;;4978665;28;20030;-38
2023/07/01 03:35:04;;;;;;;3.47;2.53;;;;;;;;;;4983204;28;20037;-40
2023/07/01 03:37:30;;;;;;;4.65;2.78;;;;;;;;;;4990939;28;20018;-40
2023/07/01 03:39:55;;;;;;;4.38;2.78;;;;;;;;;;4982234;28;20045;-37
2023/07/01 03:42:20;;;;;;;5.63;2.43;;;;;;;;;;4969854;28;20038;-39
2023/07/01 03:44:45;;;;;;;5.13;2.80;;;;;;;;;;4978220;28;20419;-38
2023/07/01 03:47:13;;;;;;;3.50;2.65;;;;;;;;;;4982482;28;20276;-36
2023/07/01 03:49:38;;;;;;;3.92;2.83;;;;;;;;;;4969220;28;20030;-40
2023/07/01 03:52:04;;;;;;;4.18;2.63;;;;;;;;;;4984971;28;20030;-35
2023/07/01 03:54:29;;;;;;;3.88;2.83;;;;;;;;;;4987736;28;20034;-37
2023/07/01 03:56:54;;;;;;;5.70;3.37;;;;;;;;;;4987739;28;20384;-35
2023/07/01 03:59:19;;;;;;;5.40;2.80;;;;;;;;;;4985498;28;20401;-37
2023/07/01 04:01:45;;;;;;;5.00;2.97;;;;;;;;;;4978240;28;20036;-36
2023/07/01 04:04:10;;;;;;;4.63;3.33;;;;;;;;;;4968665;28;20304;-37
2023/07/01 04:06:35;;;;;;;5.57;2.83;;;;;;;;;;4970865;28;20286;-40
2023/07/01 04:09:00;;;;;;;5.70;3.33;;;;;;;;;;4973599;28;20137;-40
2023/07/01 04:11:26;;;;;;;7.47;3.38;;;;;;;;;;4976694;28;20787;-36
2023/07/01 04:13:51;;;;;;;4.65;3.08;;;;;;;;;;4974938;28;20049;-35
2023/07/01 04:16:19;;;;;;;4.90;3.20;;;;;;;;;;4975341;28;20034;-38
2023/07/01 04:18:44;;;;;;;6.88;3.28;;;;;;;;;;4976904;28;20313;-40
2023/07/01 04:21:09;;;;;;;4.63;3.47;;;;;;;;;;4971982;28;20032;-37
2023/07/01 04:23:35;;;;;;;6.57;4.43;;;;;;;;;;4975464;28;20616;-37
2023/07/01 04:26:00;;;;;;;8.35;3.95;;;;;;;;;;4980522;28;20265;-36
2023/07/01 04:28:26;;;;;;;7.03;3.83;;;;;;;;;;4974281;28;20030;-36
2023/07/01 04:30:51;;;;;;;6.63;4.10;;;;;;;;;;4975964;28;20277;-37
2023/07/01 04:33:16;;;;;;;5.70;3.70;;;;;;;;;;4994110;28;20495;-41
2023/07/01 04:35:41;;;;;;;6.60;3.90;;;;;;;;;;4975021;28;20277;-37
2023/07/01 04:38:07;;;;;;;10.18;3.58;;;;;;;;;;4953532;28;21229;-40
2023/07/01 04:40:35;;;;;;;5.07;2.85;;;;;;;;;;4956493;28;24285;-38
2023/07/01 04:43:00;;;;;;;5.40;3.72;;;;;;;;;;4960901;28;20031;-36
2023/07/01 04:45:27;;;;;;;7.88;4.07;;;;;;;;;;4973971;28;20416;-36
2023/07/01 04:47:53;;;;;;;6.97;4.22;;;;;;;;;;4980404;28;20026;-37
2023/07/01 04:50:18;;;;;;;8.15;3.95;;;;;;;;;;4975270;28;20026;-36
2023/07/01 04:52:43;;;;;;;6.63;4.40;;;;;;;;;;4975227;28;20034;-37
2023/07/01 04:55:09;;;;;;;9.10;4.05;;;;;;;;;;4961291;28;20022;-37
2023/07/01 04:57:34;;;;;;;6.90;4.30;;;;;;;;;;4981447;28;20026;-36
2023/07/01 04:59:59;;;;;;;5.93;4.00;;;;;;;;;;4977720;28;21197;-40
2023/07/01 05:02:25;;;;;;;5.45;3.88;;;;;;;;;;4970398;28;20070;-37
2023/07/01 05:04:50;;;;;;;7.70;4.20;;;;;;;;;;4960662;28;20034;-37
2023/07/01 05:07:15;;;;;;;8.15;3.85;;;;;;;;;;4954289;28;20281;-37
2023/07/01 05:09:41;;;;;;;5.70;2.40;;;;;;;;;;4962811;28;20655;-37
2023/07/01 05:12:06;;;;;;;6.85;4.00;;;;;;;;;;4978819;28;20109;-37
2023/07/01 05:14:31;;;;;;;6.47;3.75;;;;;;;;;;4981014;28;20157;-37
2023/07/01 05:16:57;;;;;;;9.97;6.03;;;;;;;;;;4979221;28;20117;-36
2023/07/01 05:19:22;;;;;;;9.57;4.78;;;;;;;;;;4980952;28;20643;-40
2023/07/01 05:21:51;;;;;;;6.27;4.17;;;;;;;;;;4976943;28;20031;-37
2023/07/01 05:24:17;;;;;;;7.30;4.38;;;;;;;;;;4970069;28;20275;-38
2023/07/01 05:26:46;;;;;;;12.13;5.65;;;;;;;;;;4975567;28;20022;-37
2023/07/01 05:29:11;;;;;;;8.27;4.38;;;;;;;;;;4976295;28;20026;-36
2023/07/01 05:31:37;;;;;;;8.60;4.28;;;;;;;;;;4991663;28;20034;-39
2023/07/01 05:34:03;;;;;;;6.83;4.07;;;;;;;;;;4962910;28;20042;-38
2023/07/01 05:36:28;;;;;;;6.20;3.70;;;;;;;;;;4983123;28;20274;-37
2023/07/01 05:38:54;;;;;;;8.10;4.67;;;;;;;;;;4971371;28;20050;-40
2023/07/01 05:41:19;;;;;;;6.55;4.22;;;;;;;;;;4970885;28;20038;-38
2023/07/01 05:43:45;;;;;;;7.55;4.40;;;;;;;;;;4977556;28;20018;-41
2023/07/01 05:46:10;;;;;;;5.10;3.83;;;;;;;;;;4973261;28;20021;-37
2023/07/01 05:48:35;;;;;;;6.20;3.80;;;;;;;;;;4971873;28;20281;-38
2023/07/01 05:51:00;;;;;;;6.30;4.20;;;;;;;;;;4971912;28;20471;-38
2023/07/01 05:53:26;;;;;;;4.73;4.20;;;;;;;;;;4962151;28;20146;-37
2023/07/01 05:55:51;;;;;;;8.80;5.50;;;;;;;;;;4973712;28;20629;-37
2023/07/01 05:58:16;;;;;;;15.07;5.03;;;;;;;;;;4980199;28;20027;-40
2023/07/01 06:00:41;;;;;;;9.50;5.30;;;;;;;;;;4977060;28;20045;-38
2023/07/01 06:03:08;;;;;;;7.93;6.00;;;;;;;;;;4979286;28;20528;-36
2023/07/01 06:05:33;;;;;;;9.43;5.00;;;;;;;;;;4971410;28;20392;-36
2023/07/01 06:07:58;;;;;;;10.97;5.40;;;;;;;;;;4977889;28;20485;-37
2023/07/01 06:10:24;;;;;;;7.35;5.30;;;;;;;;;;4963490;28;20344;-37
2023/07/01 06:12:49;;;;;;;10.53;5.50;;;;;;;;;;4992738;28;20041;-37
2023/07/01 06:15:14;;;;;;;7.17;5.23;;;;;;;;;;4961403;28;20309;-39
2023/07/01 06:17:39;;;;;;;7.70;5.18;;;;;;;;;;4978544;28;20025;-37
2023/07/01 06:20:05;;;;;;;11.48;6.68;;;;;;;;;;4984883;28;20107;-40
2023/07/01 06:22:30;;;;;;;10.35;5.03;;;;;;;;;;4967410;28;20088;-37
2023/07/01 06:24:55;;;;;;;6.43;4.80;;;;;;;;;;4977313;28;20100;-37
2023/07/01 06:27:21;;;;;;;10.53;4.60;;;;;;;;;;4973552;28;21734;-38
2023/07/01 06:29:46;;;;;;;10.33;4.63;;;;;;;;;;4963006;28;20281;-37
2023/07/01 06:32:11;;;;;;;8.10;5.10;;;;;;;;;;4978275;28;20776;-38
2023/07/01 06:34:37;;;;;;;10.50;5.90;;;;;;;;;;4959358;28;20121;-36
2023/07/01 06:37:02;;;;;;;8.23;5.53;;;;;;;;;;4983165;28;20830;-37
2023/07/01 06:39:28;;;;;;;8.63;4.60;;;;;;;;;;4970909;28;20507;-36
2023/07/01 06:41:53;;;;;;;7.53;5.33;;;;;;;;;;4963892;28;20029;-40
2023/07/01 06:44:19;;;;;;;10.90;5.63;;;;;;;;;;4975536;28;20317;-40
2023/07/01 06:46:45;;;;;;;10.40;5.80;;;;;;;;;;4978174;28;20030;-37
2023/07/01 06:49:10;;;;;;;8.18;4.85;;;;;;;;;;4984202;28;20293;-37
2023/07/01 06:51:36;;;;;;;11.37;5.17;;;;;;;;;;4978024;28;20531;-38
2023/07/01 06:54:01;;;;;;;12.47;5.07;;;;;;;;;;4978912;28;20073;-38
2023/07/01 06:56:26;;;;;;;9.20;5.72;;;;;;;;;;4978406;28;20280;-39
2023/07/01 06:58:51;;;;;;;8.37;4.70;;;;;;;;;;4985794;28;20034;-38
2023/07/01 07:01:17;;;;;;;9.23;5.15;;;;;;;;;;4986044;28;20030;-37
2023/07/01 07:03:42;;;;;;;7.47;5.00;;;;;;;;;;4974325;28;20037;-37
2023/07/01 07:06:07;;;;;;;13.87;5.70;;;;;;;;;;4982314;28;20339;-37
2023/07/01 07:08:33;;;;;;;9.77;6.38;;;;;;;;;;4981439;28;20033;-37
2023/07/01 07:10:58;;;;;;;8.27;5.10;;;;;;;;;;4969982;28;20443;-36
2023/07/01 07:13:23;;;;;;;7.85;4.15;;;;;;;;;;4963983;28;20285;-41
2023/07/01 07:15:49;;;;;;;8.37;4.63;;;;;;;;;;4986286;28;20031;-40
2023/07/01 07:20:48;;;;;;;9.93;3.92;;;;;;;;;;4995385;28;20049;-37
2023/07/01 07:23:14;;;;;;;9.27;3.93;;;;;;;;;;4991649;28;20027;-38
2023/07/01 07:25:39;;;;;;;8.05;4.13;;;;;;;;;;4982470;28;20036;-37
2023/07/01 07:28:04;;;;;;;9.23;4.03;;;;;;;;;;5004316;28;20035;-37
2023/07/01 07:30:30;;;;;;;8.63;4.60;;;;;;;;;;4993335;28;20026;-38
2023/07/01 07:32:55;;;;;;;7.10;3.92;;;;;;;;;;4997102;28;20267;-36
2023/07/01 07:35:21;;;;;;;8.67;4.83;;;;;;;;;;4994677;28;20033;-37
2023/07/01 07:37:46;;;;;;;10.57;4.20;;;;;;;;;;5000245;28;20528;-37
2023/07/01 07:40:12;;;;;;;8.10;4.10;;;;;;;;;;4992266;28;20017;-36
2023/07/01 07:42:37;;;;;;;6.57;3.80;;;;;;;;;;4995283;28;21042;-36
2023/07/01 07:45:03;;;;;;;6.00;3.78;;;;;;;;;;4992368;28;20040;-37
2023/07/01 07:47:28;;;;;;;12.30;8.02;;;;;;;;;;5003260;28;20061;-36
2023/07/01 07:49:53;;;;;;;4.87;3.57;;;;;;;;;;5004508;28;20018;-36
2023/07/01 07:52:18;;;;;;;8.57;4.10;;;;;;;;;;4996937;28;20833;-37
2023/07/01 07:54:44;;;;;;;8.33;4.40;;;;;;;;;;4973426;28;20052;-37
2023/07/01 07:57:10;;;;;;;7.03;3.72;;;;;;;;;;4985198;28;20030;-37
2023/07/01 07:59:35;;;;;;;5.40;3.72;;;;;;;;;;5004243;28;20037;-37
2023/07/01 08:02:01;;;;;;;7.20;4.10;;;;;;;;;;5001526;28;20018;-36
2023/07/01 08:04:26;;;;;;;6.80;4.60;;;;;;;;;;5002931;28;20025;-37
2023/07/01 08:06:54;;;;;;;7.10;4.57;;;;;;;;;;5002516;28;20026;-36
2023/07/01 08:09:20;;;;;;;8.25;4.35;;;;;;;;;;4976759;28;20029;-37
2023/07/01 08:11:45;;;;;;;6.90;4.30;;;;;;;;;;4970492;28;20036;-38
2023/07/01 08:14:10;;;;;;;15.87;7.53;;;;;;;;;;4996589;28;20360;-36
2023/07/01 08:16:36;;;;;;;20.15;4.38;;;;;;;;;;5002071;28;20033;-37
2023/07/01 08:19:02;;;;;;;5.43;3.47;;;;;;;;;;4985720;28;20025;-37
2023/07/01 08:21:27;;;;;;;5.28;3.40;;;;;;;;;;5000369;28;20080;-37
2023/07/01 08:23:53;;;;;;;7.33;4.07;;;;;;;;;;4981069;28;20029;-36
2023/07/01 08:26:18;;;;;;;6.68;3.90;;;;;;;;;;4985101;28;20232;-37
2023/07/01 08:28:44;;;;;;;5.03;2.60;;;;;;;;;;5001056;28;20388;-37
2023/07/01 08:31:09;;;;;;;5.53;2.70;;;;;;;;;;4988162;28;20288;-37
2023/07/01 08:33:34;;;;;;;7.27;3.30;;;;;;;;;;4958624;28;20527;-37
2023/07/01 08:36:00;;;;;;;6.72;3.33;;;;;;;;;;5015464;22;20045;-37
2023/07/01 08:38:25;;;;;;;5.97;3.03;;;;;;;;;;4977294;28;20025;-35
2023/07/01 08:40:52;;;;;;;5.10;3.10;;;;;;;;;;4995082;28;20034;-34
2023/07/01 08:43:19;;;;;;;4.90;3.25;;;;;;;;;;4989284;28;20479;-35
2023/07/01 08:45:48;;;;;;;7.13;3.17;;;;;;;;;;4958903;28;20030;-35
2023/07/01 08:48:14;;;;;;;4.95;3.13;;;;;;;;;;5004640;28;20113;-34
2023/07/01 08:50:48;;;;;;;6.65;2.75;;;;;;;;;;4989148;28;20066;-35
2023/07/01 08:53:14;;;;;;;7.30;2.80;;;;;;;;;;4995775;28;20026;-36
2023/07/01 08:55:39;;;;;;;6.28;2.70;;;;;;;;;;4999809;28;20092;-35
2023/07/01 08:58:05;;;;;;;4.15;2.58;;;;;;;;;;4999530;28;20089;-38
2023/07/01 09:00:30;;;;;;;4.93;2.70;;;;;;;;;;5003508;28;20391;-35
2023/07/01 09:02:56;;;;;;;5.18;3.10;;;;;;;;;;4999124;28;20076;-36
2023/07/01 09:05:21;;;;;;;3.63;2.45;;;;;;;;;;4997318;28;20014;-35
2023/07/01 09:07:47;;;;;;;4.00;2.67;;;;;;;;;;4974709;28;20069;-39
2023/07/01 09:10:12;;;;;;;7.53;3.00;;;;;;;;;;5001572;28;20025;-35
2023/07/01 09:12:37;;;;;;;6.53;2.65;;;;;;;;;;4985724;28;20038;-36
2023/07/01 09:15:06;;;;;;;7.97;4.27;;;;;;;;;;4995557;28;20037;-38
2023/07/01 09:17:33;;;;;;;4.72;2.60;;;;;;;;;;4998756;28;20293;-35
2023/07/01 09:20:09;;;;;;;6.32;2.58;;;;;;;;;;4995205;28;20033;-34
2023/07/01 09:22:35;;;;;;;8.30;4.15;;;;;;;;;;5006702;22;20135;-38
2023/07/01 09:25:01;;;;;;;4.10;2.25;;;;;;;;;;4962712;28;20054;-38
2023/07/01 09:27:47;;;;;;;5.40;2.72;;;;;;;;;;4984275;28;20053;-38
2023/07/01 09:30:23;;;;;;;4.60;2.83;;;;;;;;;;4979800;28;20588;-38
2023/07/01 09:32:48;;;;;;;7.47;2.65;;;;;;;;;;4979131;28;20035;-38
2023/07/01 09:35:13;;;;;;;5.10;2.28;;;;;;;;;;4977662;28;20011;-38
2023/07/01 09:37:39;;;;;;;6.53;2.20;;;;;;;;;;4983584;28;20130;-38
2023/07/01 09:40:33;;;;;;;5.75;2.05;;;;;;;;;;4989857;28;20117;-38
2023/07/01 09:42:59;;;;;;;8.80;2.95;;;;;;;;;;4949728;28;20074;-38
2023/07/01 09:45:24;;;;;;;10.67;2.70;;;;;;;;;;4972044;28;20106;-37
2023/07/01 09:47:53;;;;;;;5.93;2.72;;;;;;;;;;4965741;28;20312;-37
2023/07/01 09:50:29;;;;;;;6.93;3.05;;;;;;;;;;4979915;28;20038;-38
2023/07/01 09:52:55;;;;;;;8.20;2.67;;;;;;;;;;4980407;28;20049;-37
2023/07/01 09:55:21;;;;;;;4.75;2.45;;;;;;;;;;4963686;28;20050;-37
2023/07/01 09:57:47;;;;;;;5.10;3.08;;;;;;;;;;4978846;28;20468;-37
2023/07/01 10:00:15;;;;;;;3.33;2.38;;;;;;;;;;4967337;28;20023;-37
2023/07/01 10:02:44;;;;;;;6.88;2.40;;;;;;;;;;4964229;28;20033;-37
2023/07/01 10:05:09;;;;;;;4.45;3.17;;;;;;;;;;4983540;28;20130;-37
2023/07/01 10:07:35;;;;;;;5.18;2.75;;;;;;;;;;4961195;28;20117;-37
2023/07/01 10:10:00;;;;;;;4.10;2.00;;;;;;;;;;4968439;28;20441;-37
2023/07/01 10:12:26;;;;;;;8.32;3.95;;;;;;;;;;4966761;28;20030;-38
2023/07/01 10:14:52;;;;;;;7.18;3.63;;;;;;;;;;4956983;28;20026;-38
2023/07/01 10:17:18;;;;;;;5.30;2.50;;;;;;;;;;4977082;28;20042;-38
2023/07/01 10:19:46;;;;;;;5.88;2.40;;;;;;;;;;4968783;28;20069;-38
2023/07/01 10:22:31;;;;;;;8.23;3.90;;;;;;;;;;4983489;28;20117;-37
2023/07/01 10:25:03;;;;;;;5.15;2.63;;;;;;;;;;4964725;28;20038;-38
2023/07/01 10:27:40;;;;;;;4.47;2.75;;;;;;;;;;4982246;28;20072;-37
2023/07/01 10:30:09;;;;;;;6.50;2.72;;;;;;;;;;4987110;28;20018;-37
2023/07/01 10:32:35;;;;;;;4.78;2.13;;;;;;;;;;4985719;28;20026;-37
2023/07/01 10:35:03;;;;;;;7.28;2.67;;;;;;;;;;4983187;28;20026;-37
2023/07/01 10:37:29;;;;;;;6.45;3.42;;;;;;;;;;4977181;28;20033;-34
2023/07/01 10:39:56;;;;;;;8.40;3.85;;;;;;;;;;4980982;28;20034;-36
2023/07/01 10:42:34;;;;;;;6.57;2.67;;;;;;;;;;4984592;28;20042;-36
2023/07/01 10:45:12;;;;;;;4.88;2.30;;;;;;;;;;4989632;28;20021;-36
2023/07/01 10:47:37;;;;;;;5.32;2.63;;;;;;;;;;4976832;28;20058;-36
2023/07/01 10:50:04;;;;;;;7.00;2.57;;;;;;;;;;4987288;28;20021;-36
2023/07/01 10:52:30;;;;;;;4.93;2.55;;;;;;;;;;4978369;28;20292;-36
2023/07/01 10:54:55;;;;;;;9.10;2.47;;;;;;;;;;4984442;28;20042;-36
2023/07/01 10:57:21;;;;;;;9.10;3.10;;;;;;;;;;4982212;28;20485;-35
2023/07/01 10:59:47;;;;;;;7.87;3.27;;;;;;;;;;4988622;28;20284;-35
2023/07/01 11:02:32;;;;;;;7.25;2.53;;;;;;;;;;4983298;28;20288;-35
2023/07/01 11:05:03;;;;;;;4.70;2.00;;;;;;;;;;4979924;28;20061;-36
2023/07/01 11:07:31;;;;;;;7.35;1.98;;;;;;;;;;4979372;28;20027;-37
2023/07/01 11:09:58;;;;;;;4.63;2.00;;;;;;;;;;4979596;28;20496;-36
2023/07/01 11:12:24;;;;;;;5.65;3.03;;;;;;;;;;4984068;28;20022;-37
2023/07/01 11:14:51;;;;;;;5.82;2.30;;;;;;;;;;4986613;28;20030;-36
2023/07/01 11:17:17;;;;;;;4.50;2.00;;;;;;;;;;4984841;28;20034;-35
2023/07/01 11:19:44;;;;;;;11.27;6.60;;;;;;;;;;4987587;28;20030;-35
2023/07/01 11:22:13;;;;;;;5.47;2.38;;;;;;;;;;4988176;28;20029;-35
2023/07/01 11:24:39;;;;;;;6.47;3.20;;;;;;;;;;4987934;28;20106;-35
2023/07/01 11:27:07;;;;;;;6.15;2.28;;;;;;;;;;4987074;28;20026;-35
2023/07/01 11:29:32;;;;;;;3.80;2.35;;;;;;;;;;4983522;28;20052;-36
2023/07/01 11:31:59;;;;;;;6.65;2.65;;;;;;;;;;4974957;28;20602;-36
2023/07/01 11:34:24;;;;;;;4.97;2.30;;;;;;;;;;4982697;28;20039;-36
2023/07/01 11:36:50;;;;;;;3.97;2.00;;;;;;;;;;4980718;28;20038;-35
2023/07/01 11:39:16;;;;;;;4.33;1.37;;;;;;;;;;4982604;28;20432;-36
2023/07/01 11:41:43;;;;;;;3.97;2.40;;;;;;;;;;4987107;28;20293;-37
2023/07/01 11:44:09;;;;;;;6.70;2.70;;;;;;;;;;4990419;28;20026;-38
2023/07/01 11:46:36;;;;;;;7.25;2.72;;;;;;;;;;4983971;28;20022;-37
2023/07/01 11:49:14;;;;;;;7.43;2.80;;;;;;;;;;4989030;28;20021;-38
2023/07/01 11:51:40;;;;;;;4.85;2.42;;;;;;;;;;4990045;28;20018;-41
2023/07/01 11:54:06;;;;;;;4.72;2.00;;;;;;;;;;4975461;28;20509;-38
2023/07/01 11:56:31;;;;;;;8.83;4.57;;;;;;;;;;4977970;28;20109;-38
2023/07/01 11:58:57;;;;;;;5.32;2.47;;;;;;;;;;4987489;28;20081;-38
2023/07/01 12:01:23;;;;;;;5.45;2.42;;;;;;;;;;4988892;28;20093;-38
2023/07/01 12:03:49;;;;;;;5.97;2.60;;;;;;;;;;4972504;28;20711;-37
2023/07/01 12:06:17;;;;;;;5.07;2.20;;;;;;;;;;4985306;28;20034;-40
2023/07/01 12:08:56;;;;;;;4.22;2.22;;;;;;;;;;4991009;28;20288;-38
2023/07/01 12:11:22;;;;;;;7.13;2.00;;;;;;;;;;4990517;28;20121;-38
2023/07/01 12:13:47;;;;;;;7.25;2.60;;;;;;;;;;4991004;28;20113;-39
2023/07/01 12:16:12;;;;;;;5.32;3.10;;;;;;;;;;4985978;28;20065;-39
2023/07/01 12:18:38;;;;;;;3.93;2.20;;;;;;;;;;4989970;28;20105;-39
2023/07/01 12:21:03;;;;;;;3.97;2.65;;;;;;;;;;4990659;28;20288;-36
2023/07/01 12:23:29;;;;;;;6.88;2.47;;;;;;;;;;4959995;28;20045;-39
2023/07/01 12:25:54;;;;;;;7.93;2.57;;;;;;;;;;4983499;28;20031;-41
2023/07/01 12:28:20;;;;;;;9.00;2.63;;;;;;;;;;4986053;28;20428;-38
2023/07/01 12:30:45;;;;;;;4.68;2.10;;;;;;;;;;4983840;28;20036;-38
2023/07/01 12:33:10;;;;;;;7.95;2.55;;;;;;;;;;4967851;28;20026;-40
2023/07/01 12:35:38;;;;;;;6.32;1.88;;;;;;;;;;4985585;28;20038;-40
2023/07/01 12:38:04;;;;;;;8.45;2.70;;;;;;;;;;4986909;28;20054;-38
2023/07/01 12:40:29;;;;;;;8.73;2.63;;;;;;;;;;4972356;28;20026;-41
2023/07/01 12:42:54;;;;;;;3.63;2.00;;;;;;;;;;4980280;28;20022;-39
2023/07/01 12:45:20;;;;;;;6.93;2.13;;;;;;;;;;4986361;28;20631;-39
2023/07/01 12:47:45;;;;;;;7.80;2.30;;;;;;;;;;4983766;28;20823;-39
2023/07/01 12:50:11;;;;;;;5.83;2.07;;;;;;;;;;4988795;28;20015;-41
2023/07/01 12:52:36;;;;;;;9.55;3.42;;;;;;;;;;4988130;28;20369;-38
2023/07/01 12:55:02;;;;;;;6.35;2.63;;;;;;;;;;4981233;28;20156;-39
2023/07/01 12:57:27;;;;;;;6.80;2.22;;;;;;;;;;4987345;28;20125;-40
2023/07/01 12:59:55;;;;;;;9.52;2.50;;;;;;;;;;4986848;28;20323;-37
2023/07/01 13:02:22;;;;;;;5.78;2.00;;;;;;;;;;4979357;28;20038;-38
2023/07/01 13:04:58;;;;;;;3.88;2.20;;;;;;;;;;4979025;28;20030;-39
2023/07/01 13:07:23;;;;;;;7.60;2.30;;;;;;;;;;4975110;28;20037;-38
2023/07/01 13:09:49;;;;;;;9.50;2.50;;;;;;;;;;4965146;28;20022;-39
2023/07/01 13:12:17;;;;;;;6.65;2.40;;;;;;;;;;4986538;28;20085;-38
2023/07/01 13:14:42;;;;;;;4.60;2.80;;;;;;;;;;4985242;28;20026;-37
2023/07/01 13:17:08;;;;;;;5.57;2.87;;;;;;;;;;4961320;28;20041;-37
2023/07/01 13:19:33;;;;;;;5.53;2.35;;;;;;;;;;4974659;28;20088;-39
2023/07/01 13:21:59;;;;;;;9.27;3.00;;;;;;;;;;4975354;28;20026;-38
2023/07/01 13:24:25;;;;;;;4.97;1.73;;;;;;;;;;4981457;28;20045;-36
2023/07/01 13:26:52;;;;;;;6.17;2.77;;;;;;;;;;4969905;28;20030;-37
2023/07/01 13:29:18;;;;;;;5.95;2.90;;;;;;;;;;4944539;28;20377;-38
2023/07/01 13:31:44;;;;;;;8.48;2.40;;;;;;;;;;4968102;28;20035;-39
2023/07/01 13:34:09;;;;;;;5.88;2.80;;;;;;;;;;4978787;28;20026;-38
2023/07/01 13:36:36;;;;;;;5.93;2.53;;;;;;;;;;4980928;28;20031;-39
2023/07/01 13:39:03;;;;;;;5.85;2.03;;;;;;;;;;4973805;28;20053;-39
2023/07/01 13:41:28;;;;;;;7.55;2.40;;;;;;;;;;4978272;28;20030;-38
2023/07/01 13:44:02;;;;;;;7.53;3.35;;;;;;;;;;4977849;28;20029;-38
2023/07/01 13:46:35;;;;;;;9.27;2.33;;;;;;;;;;4977159;28;20036;-37
2023/07/01 13:49:01;;;;;;;7.80;3.30;;;;;;;;;;4976436;28;20022;-38
2023/07/01 13:51:30;;;;;;;4.17;2.33;;;;;;;;;;4978841;28;20045;-36
2023/07/01 13:53:55;;;;;;;6.80;3.20;;;;;;;;;;4979284;28;20537;-39
2023/07/01 13:56:20;;;;;;;6.85;3.55;;;;;;;;;;4971557;28;20034;-37
2023/07/01 13:58:45;;;;;;;9.53;2.80;;;;;;;;;;4972664;28;20034;-39
2023/07/01 14:01:12;;;;;;;6.03;2.67;;;;;;;;;;4970511;28;20027;-37
2023/07/01 14:03:45;;;;;;;9.38;2.70;;;;;;;;;;4969433;28;20282;-38
2023/07/01 14:06:11;;;;;;;6.00;2.50;;;;;;;;;;4964763;28;20081;-38
2023/07/01 14:08:36;;;;;;;6.18;3.10;;;;;;;;;;4978251;28;20038;-38
2023/07/01 14:11:01;;;;;;;6.50;2.45;;;;;;;;;;4974003;28;20041;-38
2023/07/01 14:13:29;;;;;;;7.35;2.72;;;;;;;;;;4976459;28;20034;-36
2023/07/01 14:15:55;;;;;;;8.00;3.08;;;;;;;;;;4961535;28;20037;-38
2023/07/01 14:18:20;;;;;;;6.53;3.05;;;;;;;;;;4982067;28;20018;-38
2023/07/01 14:20:49;;;;;;;9.03;2.90;;;;;;;;;;4977963;28;20390;-37
2023/07/01 14:23:17;;;;;;;5.13;2.70;;;;;;;;;;4982179;28;20037;-37
2023/07/01 14:25:44;;;;;;;7.35;2.13;;;;;;;;;;4973713;28;20036;-38
2023/07/01 14:28:10;;;;;;;7.03;2.67;;;;;;;;;;4980141;28;20045;-39
2023/07/01 14:30:54;;;;;;;9.13;2.83;;;;;;;;;;4977455;28;20023;-39
2023/07/01 14:33:19;;;;;;;4.82;2.42;;;;;;;;;;4981467;28;20015;-39
2023/07/01 14:35:48;;;;;;;8.13;2.90;;;;;;;;;;4976072;28;20048;-37
2023/07/01 14:38:13;;;;;;;5.00;2.30;;;;;;;;;;4978388;28;20434;-38
2023/07/01 14:40:38;;;;;;;4.78;2.60;;;;;;;;;;4972906;28;20500;-37